Time;durP1;ratioP1;P1;durP2;ratioP2;P2;SDS_P1;SDS_P2;PMS_P1;PMS_P2;Temp;Humidity;BMP_temperature;BMP_pressure;BME280_temperature;BME280_humidity;BME280_pressure;Samples;Min_cycle;Max_cycle;Signal;HPM_P1;HPM_P2
2022/09/12 00:01:10;;;;;;;11.77;7.85;;;;;;;;;;6190694;23;19908;-82
2022/09/12 00:03:36;;;;;;;10.90;8.15;;;;;;;;;;6191443;23;20001;-82
2022/09/12 00:06:02;;;;;;;;;;;;;;;;;;6165792;23;20016;-82
2022/09/12 00:08:27;;;;;;;10.15;8.50;;;;;;;;;;6191250;23;19904;-83
2022/09/12 00:10:53;;;;;;;;;;;;;;;;;;6169603;23;20017;-82
2022/09/12 00:13:18;;;;;;;13.70;9.73;;;;;;;;;;6192932;23;19908;-83
2022/09/12 00:15:43;;;;;;;;;;;;;;;;;;6193894;23;20013;-83
2022/09/12 00:18:11;;;;;;;12.25;9.10;;;;;;;;;;6168960;23;20316;-82
2022/09/12 00:20:40;;;;;;;12.07;9.20;;;;;;;;;;6169865;23;20013;-82
2022/09/12 00:23:05;;;;;;;12.75;9.05;;;;;;;;;;6146410;23;19992;-81
2022/09/12 00:25:31;;;;;;;;;;;;;;;;;;6196467;23;20009;-84
2022/09/12 00:27:56;;;;;;;9.90;8.27;;;;;;;;;;6166972;23;19904;-82
2022/09/12 00:30:22;;;;;;;;;;;;;;;;;;6191725;23;20013;-81
2022/09/12 00:32:48;;;;;;;11.13;8.75;;;;;;;;;;6190597;23;19987;-81
2022/09/12 00:35:13;;;;;;;10.48;8.10;;;;;;;;;;6164967;23;20063;-82
2022/09/12 00:37:39;;;;;;;;;;;;;;;;;;6165895;23;20005;-81
2022/09/12 00:40:05;;;;;;;9.63;7.60;;;;;;;;;;6167369;23;19908;-81
2022/09/12 00:42:30;;;;;;;;;;;;;;;;;;6191641;23;20408;-83
2022/09/12 00:44:56;;;;;;;9.73;7.10;;;;;;;;;;6191520;23;19908;-82
2022/09/12 00:47:21;;;;;;;;;;;;;;;;;;6193255;23;20102;-82
2022/09/12 00:49:50;;;;;;;10.93;6.95;;;;;;;;;;6189345;23;20336;-82
2022/09/12 00:52:16;;;;;;;11.57;6.20;;;;;;;;;;6190903;23;20005;-83
2022/09/12 00:54:43;;;;;;;9.95;6.95;;;;;;;;;;6165538;23;20009;-81
2022/09/12 00:57:08;;;;;;;8.65;6.65;;;;;;;;;;6140883;23;20023;-81
2022/09/12 00:59:34;;;;;;;;;;;;;;;;;;6166292;23;20044;-81
2022/09/12 01:01:59;;;;;;;9.50;6.25;;;;;;;;;;6165203;23;19904;-83
2022/09/12 01:04:25;;;;;;;;;;;;;;;;;;6165580;23;20024;-83
2022/09/12 01:06:50;;;;;;;10.82;6.22;;;;;;;;;;6166364;23;19904;-82
2022/09/12 01:09:16;;;;;;;;;;;;;;;;;;6165445;23;20016;-82
2022/09/12 01:11:41;;;;;;;7.97;5.55;;;;;;;;;;6190049;23;19908;-82
2022/09/12 01:14:07;;;;;;;;;;;;;;;;;;6188887;23;20017;-82
2022/09/12 01:16:35;;;;;;;8.25;6.10;;;;;;;;;;6189906;23;19908;-82
2022/09/12 01:19:01;;;;;;;8.00;5.07;;;;;;;;;;6165317;23;20013;-83
2022/09/12 01:21:26;;;;;;;;;;;;;;;;;;6191596;23;20001;-84
2022/09/12 01:24:10;;;;;;;6.70;5.00;;;;;;;;;;6190712;23;20015;-83
2022/09/12 01:26:48;;;;;;;9.45;5.45;;;;;;;;;;6141562;23;20019;-83
2022/09/12 01:29:16;;;;;;;8.40;5.28;;;;;;;;;;6142117;23;20067;-83
2022/09/12 01:31:46;;;;;;;8.00;5.20;;;;;;;;;;6164671;23;20001;-83
2022/09/12 01:34:15;;;;;;;6.50;4.97;;;;;;;;;;6164407;23;20013;-82
2022/09/12 01:36:50;;;;;;;7.70;4.78;;;;;;;;;;6140245;23;20088;-82
2022/09/12 01:39:19;;;;;;;6.63;4.68;;;;;;;;;;6164177;23;20056;-82
2022/09/12 01:41:52;;;;;;;7.88;4.80;;;;;;;;;;6164199;23;20459;-82
2022/09/12 01:44:47;;;;;;;6.80;4.97;;;;;;;;;;6189116;23;20017;-83
2022/09/12 01:47:13;;;;;;;9.07;4.80;;;;;;;;;;6170014;23;20016;-83
2022/09/12 01:49:38;;;;;;;;;;;;;;;;;;6190687;23;20009;-82
2022/09/12 01:52:17;;;;;;;7.13;4.72;;;;;;;;;;6189364;23;19916;-82
2022/09/12 01:54:59;;;;;;;7.32;4.80;;;;;;;;;;6165320;23;20344;-82
2022/09/12 01:57:31;;;;;;;7.30;4.95;;;;;;;;;;6140053;23;20009;-82
2022/09/12 01:59:58;;;;;;;8.77;4.43;;;;;;;;;;6189630;23;20016;-82
2022/09/12 02:02:26;;;;;;;9.85;4.70;;;;;;;;;;6165091;23;20080;-82
2022/09/12 02:05:00;;;;;;;5.95;4.50;;;;;;;;;;6189251;23;20024;-82
2022/09/12 02:07:38;;;;;;;9.80;4.65;;;;;;;;;;6164112;23;20023;-82
2022/09/12 02:10:09;;;;;;;7.68;4.75;;;;;;;;;;6164373;23;20445;-82
2022/09/12 02:12:53;;;;;;;6.75;4.15;;;;;;;;;;6163857;23;20028;-82
2022/09/12 02:15:19;;;;;;;7.65;4.13;;;;;;;;;;6163953;23;20151;-81
2022/09/12 02:17:46;;;;;;;6.45;4.30;;;;;;;;;;6163432;23;20008;-81
2022/09/12 02:20:17;;;;;;;10.02;7.18;;;;;;;;;;6164962;23;20013;-81
2022/09/12 02:22:43;;;;;;;10.75;6.90;;;;;;;;;;6164685;23;20032;-82
2022/09/12 02:25:09;;;;;;;;;;;;;;;;;;6166549;23;20016;-81
2022/09/12 02:27:44;;;;;;;8.10;4.97;;;;;;;;;;6192103;23;19911;-80
2022/09/12 02:30:13;;;;;;;7.90;5.40;;;;;;;;;;6167203;23;20013;-82
2022/09/12 02:32:57;;;;;;;7.75;4.88;;;;;;;;;;6141993;23;20023;-81
2022/09/12 02:35:42;;;;;;;6.88;4.53;;;;;;;;;;6166843;23;20408;-83
2022/09/12 02:38:09;;;;;;;5.68;4.75;;;;;;;;;;6165867;23;20008;-82
2022/09/12 02:40:34;;;;;;;8.85;4.93;;;;;;;;;;6168803;23;20001;-82
2022/09/12 02:43:00;;;;;;;;;;;;;;;;;;6167895;23;20167;-82
2022/09/12 02:45:25;;;;;;;6.65;4.78;;;;;;;;;;6193092;23;19910;-81
2022/09/12 02:47:57;;;;;;;7.93;4.80;;;;;;;;;;6168171;23;20346;-82
2022/09/12 02:50:24;;;;;;;7.95;5.03;;;;;;;;;;6193736;23;20091;-82
2022/09/12 02:52:49;;;;;;;;;;;;;;;;;;6168681;23;20012;-84
2022/09/12 02:55:15;;;;;;;7.93;5.57;;;;;;;;;;6193394;23;19908;-82
2022/09/12 02:57:40;;;;;;;;;;;;;;;;;;6166584;23;20001;-82
2022/09/12 03:00:07;;;;;;;7.22;5.40;;;;;;;;;;6190921;23;19943;-83
2022/09/12 03:02:33;;;;;;;7.88;5.88;;;;;;;;;;6193623;23;20005;-82
2022/09/12 03:04:58;;;;;;;;;;;;;;;;;;6194010;23;20013;-82
2022/09/12 03:07:27;;;;;;;8.02;6.07;;;;;;;;;;6194867;23;19991;-83
2022/09/12 03:10:05;;;;;;;11.35;8.00;;;;;;;;;;6144482;23;20009;-82
2022/09/12 03:12:31;;;;;;;10.90;7.93;;;;;;;;;;6168253;23;20013;-83
2022/09/12 03:15:00;;;;;;;;;;;;;;;;;;6168468;23;20484;-82
2022/09/12 03:17:44;;;;;;;12.65;6.90;;;;;;;;;;6192025;23;19931;-81
2022/09/12 03:20:28;;;;;;;8.55;6.40;;;;;;;;;;6168711;23;20009;-83
2022/09/12 03:22:58;;;;;;;9.38;6.85;;;;;;;;;;6193118;23;20036;-82
2022/09/12 03:25:26;;;;;;;9.23;6.80;;;;;;;;;;6154545;23;20016;-82
2022/09/12 03:28:00;;;;;;;9.80;7.20;;;;;;;;;;6176038;23;20456;-82
2022/09/12 03:30:25;;;;;;;10.90;7.07;;;;;;;;;;6168556;23;20020;-82
2022/09/12 03:32:50;;;;;;;;;;;;;;;;;;6168349;23;19996;-84
2022/09/12 03:35:17;;;;;;;13.35;7.45;;;;;;;;;;6193588;23;19908;-82
2022/09/12 03:37:43;;;;;;;13.52;7.40;;;;;;;;;;6170290;23;20544;-83
2022/09/12 03:40:08;;;;;;;;;;;;;;;;;;6172780;23;20088;-83
2022/09/12 03:42:34;;;;;;;13.10;7.55;;;;;;;;;;6193005;23;19974;-83
2022/09/12 03:44:59;;;;;;;;;;;;;;;;;;6170915;23;20091;-83
2022/09/12 03:47:25;;;;;;;9.90;6.80;;;;;;;;;;6196131;23;20359;-84
2022/09/12 03:49:51;;;;;;;;;;;;;;;;;;6173941;23;20013;-83
2022/09/12 03:52:17;;;;;;;10.07;6.60;;;;;;;;;;6173461;23;19971;-83
2022/09/12 03:54:42;;;;;;;;;;;;;;;;;;6151869;23;20013;-83
2022/09/12 03:57:08;;;;;;;10.93;6.63;;;;;;;;;;6198835;23;19904;-83
2022/09/12 03:59:33;;;;;;;;;;;;;;;;;;6147768;23;20033;-83
2022/09/12 04:02:03;;;;;;;10.82;6.55;;;;;;;;;;6200459;23;19913;-86
2022/09/12 04:04:29;;;;;;;8.93;6.20;;;;;;;;;;6171441;23;20080;-83
2022/09/12 04:06:54;;;;;;;;;;;;;;;;;;6173245;23;20008;-82
2022/09/12 04:09:21;;;;;;;11.88;7.53;;;;;;;;;;6201731;23;19908;-82
2022/09/12 04:11:46;;;;;;;;;;;;;;;;;;6149475;23;20057;-83
2022/09/12 04:14:12;;;;;;;11.07;6.10;;;;;;;;;;6195328;23;19936;-82
2022/09/12 04:16:37;;;;;;;;;;;;;;;;;;6154232;23;20008;-83
2022/09/12 04:19:03;;;;;;;8.05;5.45;;;;;;;;;;6199044;23;19948;-83
2022/09/12 04:21:29;;;;;;;;;;;;;;;;;;6177293;23;20310;-83
2022/09/12 04:23:55;;;;;;;8.43;5.88;;;;;;;;;;6198537;23;20300;-82
2022/09/12 04:26:20;;;;;;;;;;;;;;;;;;6173557;23;20012;-83
2022/09/12 04:28:46;;;;;;;8.15;5.88;;;;;;;;;;6198121;23;19974;-81
2022/09/12 04:31:12;;;;;;;;;;;;;;;;;;6197894;23;20338;-82
2022/09/12 04:33:37;;;;;;;8.00;6.00;;;;;;;;;;6198335;23;19994;-81
2022/09/12 04:36:02;;;;;;;;;;;;;;;;;;6170767;23;20034;-83
2022/09/12 04:38:28;;;;;;;28.50;20.80;;;;;;;;;;6199375;23;19908;-83
2022/09/12 04:40:55;;;;;;;;;;;;;;;;;;6173545;23;20004;-84
2022/09/12 04:43:21;;;;;;;8.95;6.32;;;;;;;;;;6204118;23;19907;-84
2022/09/12 04:45:47;;;;;;;9.68;5.60;;;;;;;;;;6182570;23;20027;-82
2022/09/12 04:48:12;;;;;;;;;;;;;;;;;;6211591;23;20016;-83
2022/09/12 04:50:38;;;;;;;8.88;7.63;;;;;;;;;;6211209;23;19947;-83
2022/09/12 04:53:03;;;;;;;7.40;4.35;;;;;;;;;;6187218;23;20022;-82
2022/09/12 04:55:29;;;;;;;;;;;;;;;;;;6185387;23;19999;-81
2022/09/12 04:57:54;;;;;;;7.30;4.80;;;;;;;;;;6236719;23;19949;-84
2022/09/12 05:00:20;;;;;;;7.20;4.95;;;;;;;;;;6209240;23;20016;-80
2022/09/12 05:02:46;;;;;;;7.13;4.60;;;;;;;;;;6210268;23;20012;-85
2022/09/12 05:05:11;;;;;;;;;;;;;;;;;;6188774;23;20023;-84
2022/09/12 05:07:37;;;;;;;7.82;5.13;;;;;;;;;;6213834;23;19915;-84
2022/09/12 05:10:03;;;;;;;;;;;;;;;;;;6237542;23;20000;-84
2022/09/12 05:12:29;;;;;;;7.57;4.80;;;;;;;;;;6235564;23;19914;-82
2022/09/12 05:14:55;;;;;;;6.82;4.80;;;;;;;;;;6211062;23;20447;-83
2022/09/12 05:17:21;;;;;;;;;;;;;;;;;;6213452;23;20048;-83
2022/09/12 05:19:46;;;;;;;7.95;4.80;;;;;;;;;;6237912;23;20076;-83
2022/09/12 05:22:16;;;;;;;8.60;4.70;;;;;;;;;;6240990;23;20008;-85
2022/09/12 05:24:42;;;;;;;27.00;18.55;;;;;;;;;;6216495;23;20012;-83
2022/09/12 05:27:08;;;;;;;8.35;6.00;;;;;;;;;;6187018;23;20016;-83
2022/09/12 05:29:33;;;;;;;;;;;;;;;;;;6212260;23;20038;-84
2022/09/12 05:31:59;;;;;;;7.93;5.22;;;;;;;;;;6215484;23;19942;-83
2022/09/12 05:34:26;;;;;;;;;;;;;;;;;;6190965;23;20008;-83
2022/09/12 05:36:52;;;;;;;7.93;5.25;;;;;;;;;;6215005;23;19908;-84
2022/09/12 05:39:17;;;;;;;;;;;;;;;;;;6190973;23;20075;-83
2022/09/12 05:41:43;;;;;;;9.00;5.00;;;;;;;;;;6216031;23;19919;-83
2022/09/12 05:44:13;;;;;;;7.68;5.80;;;;;;;;;;6235331;23;20027;-83
2022/09/12 05:46:39;;;;;;;8.60;5.40;;;;;;;;;;6185827;23;20012;-81
2022/09/12 05:49:05;;;;;;;9.75;6.13;;;;;;;;;;6208375;23;20035;-81
2022/09/12 05:51:32;;;;;;;8.25;5.70;;;;;;;;;;6209250;23;20000;-83
2022/09/12 05:53:59;;;;;;;9.35;5.63;;;;;;;;;;6236756;23;20063;-83
2022/09/12 05:56:25;;;;;;;10.40;5.35;;;;;;;;;;6181365;23;20008;-82
2022/09/12 05:58:54;;;;;;;8.20;5.22;;;;;;;;;;6208070;23;19996;-83
2022/09/12 06:01:20;;;;;;;9.55;6.60;;;;;;;;;;6210970;23;20016;-83
2022/09/12 06:03:45;;;;;;;;;;;;;;;;;;6212425;23;20072;-83
2022/09/12 06:06:12;;;;;;;9.85;5.90;;;;;;;;;;6238587;23;19974;-85
2022/09/12 06:08:42;;;;;;;7.50;5.63;;;;;;;;;;6239146;23;20024;-83
2022/09/12 06:13:43;;;;;;;9.80;6.03;;;;;;;;;;6203996;23;20025;-84
2022/09/12 06:16:09;;;;;;;;;;;;;;;;;;6182100;23;20020;-84
2022/09/12 06:18:35;;;;;;;9.03;6.20;;;;;;;;;;6181023;23;20428;-84
2022/09/12 06:21:01;;;;;;;;;;;;;;;;;;6179303;23;20012;-84
2022/09/12 06:23:27;;;;;;;10.77;6.80;;;;;;;;;;6198745;23;19904;-83
2022/09/12 06:25:53;;;;;;;;;;;;;;;;;;6181442;23;20020;-84
2022/09/12 06:28:19;;;;;;;10.60;6.03;;;;;;;;;;6179650;23;19904;-84
2022/09/12 06:30:45;;;;;;;16.92;10.02;;;;;;;;;;6180456;23;20028;-84
2022/09/12 06:33:10;;;;;;;;;;;;;;;;;;6132062;23;20060;-84
2022/09/12 06:35:37;;;;;;;12.07;6.20;;;;;;;;;;6205536;23;19987;-83
2022/09/12 06:38:02;;;;;;;;;;;;;;;;;;6157394;23;20004;-84
2022/09/12 06:40:31;;;;;;;8.90;5.63;;;;;;;;;;6207904;23;19924;-83
2022/09/12 06:42:57;;;;;;;10.45;5.80;;;;;;;;;;6181919;23;20017;-83
2022/09/12 06:45:31;;;;;;;21.38;6.70;;;;;;;;;;6182165;23;20013;-84
2022/09/12 06:47:57;;;;;;;;;;;;;;;;;;6155070;23;20036;-84
2022/09/12 06:50:22;;;;;;;11.90;7.10;;;;;;;;;;6181292;23;19910;-84
2022/09/12 06:52:48;;;;;;;;;;;;;;;;;;6180748;23;19997;-86
2022/09/12 06:55:14;;;;;;;9.07;6.15;;;;;;;;;;6204216;23;19926;-83
2022/09/12 06:57:40;;;;;;;10.30;6.03;;;;;;;;;;6182441;23;20013;-84
2022/09/12 07:00:06;;;;;;;;;;;;;;;;;;6178155;23;20004;-84
2022/09/12 07:02:32;;;;;;;10.63;5.75;;;;;;;;;;6177269;23;19931;-84
2022/09/12 07:04:57;;;;;;;;;;;;;;;;;;6183141;23;20008;-83
2022/09/12 07:07:23;;;;;;;11.27;5.97;;;;;;;;;;6183163;23;19888;-83
2022/09/12 07:09:49;;;;;;;;;;;;;;;;;;6183940;23;20017;-84
2022/09/12 07:12:16;;;;;;;9.65;6.25;;;;;;;;;;6209846;23;19920;-84
2022/09/12 07:14:41;;;;;;;13.77;6.28;;;;;;;;;;6185432;23;20032;-82
2022/09/12 07:17:07;;;;;;;;;;;;;;;;;;6185844;23;20020;-83
2022/09/12 07:19:35;;;;;;;8.18;4.72;;;;;;;;;;6183774;23;19955;-83
2022/09/12 07:22:00;;;;;;;;;;;;;;;;;;6183481;23;20472;-83
2022/09/12 07:24:27;;;;;;;12.13;4.80;;;;;;;;;;6186644;23;19905;-84
2022/09/12 07:26:52;;;;;;;;;;;;;;;;;;6160888;23;20056;-82
2022/09/12 07:29:18;;;;;;;14.27;5.60;;;;;;;;;;6183364;23;19940;-82
2022/09/12 07:31:46;;;;;;;;;;;;;;;;;;6186758;23;20020;-83
2022/09/12 07:34:13;;;;;;;8.75;4.80;;;;;;;;;;6184432;23;19896;-84
2022/09/12 07:36:38;;;;;;;;;;;;;;;;;;6160497;23;20041;-84
2022/09/12 07:39:04;;;;;;;8.93;6.00;;;;;;;;;;6187212;23;19904;-83
2022/09/12 07:41:32;;;;;;;9.07;4.72;;;;;;;;;;6185101;23;20009;-85
2022/09/12 07:44:25;;;;;;;10.38;4.88;;;;;;;;;;6258879;23;20105;-83
2022/09/12 07:46:52;;;;;;;11.23;5.50;;;;;;;;;;6219204;23;20004;-84
2022/09/12 07:49:17;;;;;;;;;;;;;;;;;;6222163;23;20028;-83
2022/09/12 07:51:45;;;;;;;9.50;4.43;;;;;;;;;;6245841;23;19914;-83
2022/09/12 07:56:53;;;;;;;7.35;4.30;;;;;;;;;;6263647;23;20089;-83
2022/09/12 08:02:12;;;;;;;9.50;3.80;;;;;;;;;;6245333;23;19937;-84
2022/09/12 08:04:40;;;;;;;8.90;4.13;;;;;;;;;;6223321;23;20019;-84
2022/09/12 08:07:08;;;;;;;12.35;4.00;;;;;;;;;;6195614;23;20000;-86
2022/09/12 08:09:34;;;;;;;7.10;3.78;;;;;;;;;;6214455;23;20060;-86
2022/09/12 08:12:01;;;;;;;6.80;3.83;;;;;;;;;;6215110;23;20000;-83
2022/09/12 08:14:26;;;;;;;;;;;;;;;;;;6211351;23;20066;-85
2022/09/12 08:16:53;;;;;;;9.97;4.03;;;;;;;;;;6239396;23;19907;-84
2022/09/12 08:19:18;;;;;;;;;;;;;;;;;;6186883;23;19984;-85
2022/09/12 08:21:45;;;;;;;12.68;3.90;;;;;;;;;;6212194;23;19915;-85
2022/09/12 08:24:11;;;;;;;12.10;4.13;;;;;;;;;;6189386;23;20403;-84
2022/09/12 08:26:36;;;;;;;;;;;;;;;;;;6213592;23;20020;-84
2022/09/12 08:29:03;;;;;;;10.38;3.28;;;;;;;;;;6239909;23;19904;-84
2022/09/12 08:31:36;;;;;;;8.43;3.40;;;;;;;;;;6215766;23;20032;-84
2022/09/12 08:34:05;;;;;;;8.88;3.42;;;;;;;;;;6190904;23;20032;-86
2022/09/12 08:36:32;;;;;;;7.90;4.90;;;;;;;;;;6214070;23;20000;-86
2022/09/12 08:39:00;;;;;;;6.10;3.50;;;;;;;;;;6217356;23;20000;-86
2022/09/12 08:41:46;;;;;;;7.95;3.20;;;;;;;;;;6188943;23;20011;-85
2022/09/12 08:44:16;;;;;;;8.32;3.20;;;;;;;;;;6214268;23;20008;-85
2022/09/12 08:46:48;;;;;;;6.78;3.30;;;;;;;;;;6188919;23;20012;-85
2022/09/12 08:49:14;;;;;;;6.72;3.35;;;;;;;;;;6163381;23;20035;-84
2022/09/12 08:51:40;;;;;;;9.88;3.60;;;;;;;;;;6189334;23;20190;-85
2022/09/12 08:54:06;;;;;;;;;;;;;;;;;;6211940;23;20404;-83
2022/09/12 08:56:34;;;;;;;7.07;3.08;;;;;;;;;;6185389;23;19990;-84
2022/09/12 08:59:00;;;;;;;10.20;3.33;;;;;;;;;;6188465;23;20000;-85
2022/09/12 09:01:32;;;;;;;7.93;3.20;;;;;;;;;;6212115;23;20024;-86
2022/09/12 09:04:17;;;;;;;7.38;3.08;;;;;;;;;;6190580;23;20024;-84
2022/09/12 09:07:09;;;;;;;5.47;2.75;;;;;;;;;;6235957;23;20023;-85
2022/09/12 09:09:39;;;;;;;7.40;2.72;;;;;;;;;;6241861;23;20022;-83
2022/09/12 09:12:25;;;;;;;8.57;3.40;;;;;;;;;;6242020;23;19997;-84
2022/09/12 09:15:01;;;;;;;7.47;2.72;;;;;;;;;;6241273;23;20023;-83
2022/09/12 09:22:45;;;;;;;5.90;3.25;;;;;;;;;;6270379;23;20054;-84
2022/09/12 09:25:16;;;;;;;5.75;3.00;;;;;;;;;;6220397;23;20007;-84
2022/09/12 09:27:46;;;;;;;6.68;2.58;;;;;;;;;;6217934;23;20015;-84
2022/09/12 09:33:41;;;;;;;8.52;2.83;;;;;;;;;;6207061;23;20094;-84
2022/09/12 09:36:33;;;;;;;6.68;2.25;;;;;;;;;;6183198;23;20056;-83
2022/09/12 09:39:08;;;;;;;5.85;2.90;;;;;;;;;;6159542;23;20017;-84
2022/09/12 09:49:32;;;;;;;5.15;2.20;;;;;;;;;;6240292;22;20062;-84
2022/09/12 09:51:59;;;;;;;7.97;2.20;;;;;;;;;;6218359;23;20020;-85
2022/09/12 09:54:27;;;;;;;7.45;2.60;;;;;;;;;;6195642;23;20004;-85
2022/09/12 09:56:57;;;;;;;5.93;2.30;;;;;;;;;;6220741;23;20019;-83
2022/09/12 09:59:22;;;;;;;4.45;2.13;;;;;;;;;;6194585;23;20011;-83
2022/09/12 10:15:20;;;;;;;7.30;2.40;;;;;;;;;;6233651;22;20030;-84
2022/09/12 10:20:48;;;;;;;7.78;2.28;;;;;;;;;;6224895;23;20003;-84
2022/09/12 10:23:14;;;;;;;4.25;2.50;;;;;;;;;;6219498;23;20016;-85
2022/09/12 10:25:40;;;;;;;6.45;2.42;;;;;;;;;;6219478;23;19995;-84
2022/09/12 10:28:12;;;;;;;3.97;1.88;;;;;;;;;;6219673;23;20004;-82
2022/09/12 10:30:38;;;;;;;3.47;1.60;;;;;;;;;;6189099;23;20012;-84
2022/09/12 10:33:05;;;;;;;4.32;1.50;;;;;;;;;;6218959;23;20026;-83
2022/09/12 10:35:41;;;;;;;9.32;1.98;;;;;;;;;;6243498;23;20022;-84
2022/09/12 10:38:07;;;;;;;;;;;;;;;;;;6217760;23;20038;-84
2022/09/12 10:40:41;;;;;;;7.43;3.17;;;;;;;;;;6217127;23;19907;-83
2022/09/12 10:43:22;;;;;;;5.30;2.33;;;;;;;;;;6214959;23;20019;-84
2022/09/12 10:45:48;;;;;;;6.15;2.55;;;;;;;;;;6218700;23;20054;-83
2022/09/12 10:48:24;;;;;;;4.03;2.15;;;;;;;;;;6217187;23;20004;-83
2022/09/12 10:53:31;;;;;;;6.63;2.35;;;;;;;;;;6268806;23;20062;-86
2022/09/12 10:56:11;;;;;;;4.68;1.88;;;;;;;;;;6220965;23;20023;-85
2022/09/12 10:58:56;;;;;;;6.75;1.80;;;;;;;;;;6219686;23;20012;-84
2022/09/12 11:01:33;;;;;;;6.15;1.90;;;;;;;;;;6244891;22;20012;-85
2022/09/12 11:04:05;;;;;;;5.13;2.10;;;;;;;;;;6195745;23;20020;-86
2022/09/12 11:06:53;;;;;;;5.85;1.85;;;;;;;;;;6273160;23;19985;-84
2022/09/12 11:09:23;;;;;;;6.47;1.80;;;;;;;;;;6212441;23;20002;-85
2022/09/12 11:11:54;;;;;;;6.65;2.15;;;;;;;;;;6246349;23;20046;-84
2022/09/12 11:14:27;;;;;;;5.32;1.83;;;;;;;;;;6217790;23;20038;-83
2022/09/12 11:17:06;;;;;;;7.20;1.60;;;;;;;;;;6219732;23;20062;-83
2022/09/12 11:19:50;;;;;;;2.92;1.10;;;;;;;;;;6196350;23;20012;-84
2022/09/12 11:22:25;;;;;;;3.70;1.20;;;;;;;;;;6244852;23;20037;-83
2022/09/12 11:25:10;;;;;;;3.92;1.30;;;;;;;;;;6216579;23;20016;-83
2022/09/12 11:27:36;;;;;;;2.17;1.00;;;;;;;;;;6243906;23;20008;-82
2022/09/12 11:30:05;;;;;;;1.60;0.95;;;;;;;;;;6217344;23;20000;-84
2022/09/12 11:32:49;;;;;;;4.45;1.00;;;;;;;;;;6219619;23;20034;-82
2022/09/12 11:35:17;;;;;;;2.63;1.10;;;;;;;;;;6245091;23;20008;-85
2022/09/12 11:38:01;;;;;;;3.88;1.30;;;;;;;;;;6218985;23;20000;-84
2022/09/12 11:40:41;;;;;;;5.63;1.20;;;;;;;;;;6241584;23;20008;-84
2022/09/12 11:43:11;;;;;;;5.40;1.30;;;;;;;;;;6243382;23;20050;-85
2022/09/12 11:45:39;;;;;;;3.97;1.20;;;;;;;;;;6195550;23;20012;-84
2022/09/12 11:48:36;;;;;;;5.40;1.40;;;;;;;;;;6222199;23;20059;-85
2022/09/12 11:51:03;;;;;;;8.07;1.60;;;;;;;;;;6239844;23;20016;-84
2022/09/12 11:53:32;;;;;;;3.80;1.30;;;;;;;;;;6192337;23;20080;-84
2022/09/12 12:01:26;;;;;;;3.70;1.30;;;;;;;;;;6261535;22;20034;-84
2022/09/12 12:29:39;;;;;;;3.72;1.42;;;;;;;;;;6269553;22;20089;-85
2022/09/12 12:32:06;;;;;;;3.92;1.40;;;;;;;;;;6245825;23;20073;-85
2022/09/12 12:34:32;;;;;;;5.13;2.00;;;;;;;;;;6220447;23;19988;-85
2022/09/12 12:37:00;;;;;;;4.28;1.40;;;;;;;;;;6196638;23;20031;-85
2022/09/12 12:39:46;;;;;;;4.68;1.40;;;;;;;;;;6196075;23;20000;-84
2022/09/12 12:52:48;;;;;;;5.05;3.20;;;;;;;;;;6245147;23;20363;-85
2022/09/12 12:55:21;;;;;;;4.15;1.83;;;;;;;;;;6247429;23;19999;-85
2022/09/12 12:57:50;;;;;;;4.13;1.52;;;;;;;;;;6220204;23;19976;-84
2022/09/12 13:00:24;;;;;;;7.32;2.58;;;;;;;;;;6246540;23;19990;-84
2022/09/12 13:02:55;;;;;;;7.18;3.60;;;;;;;;;;6245850;23;20062;-84
2022/09/12 13:05:23;;;;;;;10.50;5.70;;;;;;;;;;6222056;23;20020;-86
2022/09/12 13:07:53;;;;;;;18.17;11.38;;;;;;;;;;6222247;23;20004;-84
2022/09/12 13:10:28;;;;;;;20.50;11.68;;;;;;;;;;6221291;23;20038;-84
2022/09/12 13:13:00;;;;;;;13.43;6.60;;;;;;;;;;6223832;23;20012;-85
2022/09/12 13:15:46;;;;;;;8.38;4.53;;;;;;;;;;6246198;22;20019;-85
2022/09/12 13:18:20;;;;;;;7.93;3.65;;;;;;;;;;6247440;23;20020;-84
2022/09/12 13:54:32;;;;;;;6.60;1.40;;;;;;;;;;6240241;23;20001;-84
2022/09/12 13:56:59;;;;;;;4.00;1.40;;;;;;;;;;6241850;23;20007;-86
2022/09/12 13:59:26;;;;;;;3.90;1.30;;;;;;;;;;6216233;22;20023;-84
2022/09/12 14:01:53;;;;;;;4.57;1.33;;;;;;;;;;6205692;23;19992;-86
2022/09/12 14:07:10;;;;;;;2.58;1.10;;;;;;;;;;6223565;23;19992;-85
2022/09/12 14:09:40;;;;;;;4.45;1.10;;;;;;;;;;6221110;23;19984;-84
2022/09/12 14:12:16;;;;;;;4.82;1.30;;;;;;;;;;6195105;23;20015;-84
2022/09/12 14:14:45;;;;;;;2.85;1.10;;;;;;;;;;6246665;23;20022;-84
2022/09/12 14:20:00;;;;;;;3.03;1.17;;;;;;;;;;6256493;22;20035;-86
2022/09/12 14:22:28;;;;;;;5.18;1.50;;;;;;;;;;6222766;23;20023;-85
2022/09/12 14:24:54;;;;;;;3.38;1.30;;;;;;;;;;6223657;23;20012;-85
2022/09/12 14:33:17;;;;;;;2.47;1.10;;;;;;;;;;6196647;23;20062;-86
2022/09/12 14:41:29;;;;;;;5.65;1.25;;;;;;;;;;6211384;23;20032;-83
2022/09/12 14:51:55;;;;;;;3.22;1.58;;;;;;;;;;6271508;23;20433;-84
2022/09/12 14:54:26;;;;;;;5.18;1.58;;;;;;;;;;6220822;23;19996;-83
2022/09/12 14:56:59;;;;;;;3.33;1.70;;;;;;;;;;6247411;23;20008;-85
2022/09/12 14:59:34;;;;;;;5.97;1.88;;;;;;;;;;6197154;23;20012;-85
2022/09/12 15:07:28;;;;;;;6.75;2.03;;;;;;;;;;6211257;23;20087;-84
2022/09/12 15:15:13;;;;;;;6.20;2.20;;;;;;;;;;6269251;23;20058;-82
2022/09/12 15:17:38;;;;;;;7.45;3.00;;;;;;;;;;6216897;23;20095;-83
2022/09/12 15:20:08;;;;;;;4.50;2.35;;;;;;;;;;6244630;23;19976;-84
2022/09/12 15:22:34;;;;;;;4.45;2.60;;;;;;;;;;6206110;23;20031;-82
2022/09/12 15:25:00;;;;;;;8.43;2.90;;;;;;;;;;6187696;23;20024;-84
2022/09/12 15:27:26;;;;;;;6.90;2.50;;;;;;;;;;6211114;23;20072;-83
2022/09/12 15:29:51;;;;;;;6.70;2.60;;;;;;;;;;6187821;23;20005;-84
2022/09/12 15:32:24;;;;;;;6.40;2.40;;;;;;;;;;6187539;23;20020;-85
2022/09/12 15:34:50;;;;;;;5.65;2.47;;;;;;;;;;6211893;23;20005;-82
2022/09/12 15:37:15;;;;;;;;;;;;;;;;;;6212753;23;20013;-84
2022/09/12 15:39:41;;;;;;;4.03;2.25;;;;;;;;;;6188265;23;19908;-84
2022/09/12 15:42:08;;;;;;;6.50;1.88;;;;;;;;;;6214616;23;19996;-85
2022/09/12 15:47:23;;;;;;;4.03;2.50;;;;;;;;;;6270254;23;20051;-83
2022/09/12 15:49:49;;;;;;;3.97;2.08;;;;;;;;;;6220140;23;20054;-83
2022/09/12 15:52:16;;;;;;;;;;;;;;;;;;6218885;23;20001;-85
2022/09/12 15:54:42;;;;;;;5.30;2.13;;;;;;;;;;6217217;23;19967;-83
2022/09/12 15:57:07;;;;;;;;;;;;;;;;;;6192512;23;20004;-82
2022/09/12 15:59:33;;;;;;;5.20;2.03;;;;;;;;;;6241240;23;19915;-83
2022/09/12 16:01:58;;;;;;;4.47;2.35;;;;;;;;;;6191705;23;19988;-85
2022/09/12 16:04:24;;;;;;;;;;;;;;;;;;6214953;23;20020;-82
2022/09/12 16:06:50;;;;;;;6.95;3.50;;;;;;;;;;6239032;23;19910;-82
2022/09/12 16:09:15;;;;;;;7.15;2.90;;;;;;;;;;6216859;23;20027;-85
2022/09/12 16:11:41;;;;;;;;;;;;;;;;;;6193724;23;20004;-83
2022/09/12 16:14:06;;;;;;;5.22;2.65;;;;;;;;;;6213186;23;19929;-82
2022/09/12 16:16:33;;;;;;;5.00;3.00;;;;;;;;;;6205828;23;20363;-84
2022/09/12 16:18:59;;;;;;;8.23;2.80;;;;;;;;;;6189231;23;20039;-84
2022/09/12 16:21:25;;;;;;;;;;;;;;;;;;6267494;23;20011;-82
2022/09/12 16:23:51;;;;;;;6.32;2.67;;;;;;;;;;6215854;23;19918;-83
2022/09/12 16:26:22;;;;;;;5.22;2.38;;;;;;;;;;6217273;23;20008;-83
2022/09/12 16:28:47;;;;;;;;;;;;;;;;;;6217170;23;20068;-84
2022/09/12 16:31:14;;;;;;;6.47;2.97;;;;;;;;;;6268430;23;19914;-83
2022/09/12 16:33:39;;;;;;;;;;;;;;;;;;6217548;23;20340;-84
2022/09/12 16:36:06;;;;;;;6.25;2.88;;;;;;;;;;6268330;23;19958;-84
2022/09/12 16:38:33;;;;;;;8.77;3.08;;;;;;;;;;6217418;23;20013;-84
2022/09/12 16:43:36;;;;;;;9.27;2.90;;;;;;;;;;6256120;22;20027;-84
2022/09/12 16:54:02;;;;;;;8.45;5.68;;;;;;;;;;6245512;22;20054;-85
2022/09/12 16:59:51;;;;;;;5.03;2.47;;;;;;;;;;6197995;22;20054;-85
2022/09/12 17:02:37;;;;;;;5.10;2.90;;;;;;;;;;6244279;23;20016;-85
2022/09/12 17:05:09;;;;;;;5.43;2.80;;;;;;;;;;6196216;23;20016;-87
2022/09/12 17:08:15;;;;;;;4.88;2.50;;;;;;;;;;6221652;23;20020;-85
2022/09/12 17:10:51;;;;;;;6.90;3.10;;;;;;;;;;6245606;23;20019;-83
2022/09/12 17:16:07;;;;;;;7.05;2.83;;;;;;;;;;6271771;22;20042;-83
2022/09/12 17:18:32;;;;;;;;;;;;;;;;;;6219287;23;20023;-82
2022/09/12 17:21:00;;;;;;;5.88;3.00;;;;;;;;;;6269248;23;19919;-83
2022/09/12 17:23:25;;;;;;;;;;;;;;;;;;6204968;23;20026;-80
2022/09/12 17:25:51;;;;;;;8.10;2.88;;;;;;;;;;6226248;23;19927;-83
2022/09/12 17:28:17;;;;;;;5.07;2.70;;;;;;;;;;6202422;23;20443;-81
2022/09/12 17:30:42;;;;;;;;;;;;;;;;;;6207686;23;20454;-81
2022/09/12 17:33:08;;;;;;;4.55;2.75;;;;;;;;;;6229333;23;19907;-81
2022/09/12 17:35:33;;;;;;;;;;;;;;;;;;6230053;23;20080;-83
2022/09/12 17:37:59;;;;;;;5.38;3.00;;;;;;;;;;6228761;23;19961;-82
2022/09/12 17:40:25;;;;;;;12.45;7.80;;;;;;;;;;6230643;23;20007;-80
2022/09/12 17:42:50;;;;;;;;;;;;;;;;;;6227081;23;20027;-82
2022/09/12 17:45:15;;;;;;;5.45;3.03;;;;;;;;;;6225877;23;20412;-82
2022/09/12 17:47:41;;;;;;;8.43;3.05;;;;;;;;;;6253886;23;20019;-81
2022/09/12 17:50:07;;;;;;;5.15;2.78;;;;;;;;;;6207815;23;20004;-82
2022/09/12 17:52:33;;;;;;;6.38;2.78;;;;;;;;;;6185158;23;20089;-81
2022/09/12 17:54:58;;;;;;;;;;;;;;;;;;6198062;23;20017;-81
2022/09/12 17:57:24;;;;;;;5.55;2.63;;;;;;;;;;6197268;23;19915;-80
2022/09/12 17:59:50;;;;;;;5.25;2.60;;;;;;;;;;6194022;23;19997;-78
2022/09/12 18:02:15;;;;;;;;;;;;;;;;;;6170089;23;20015;-80
2022/09/12 18:04:41;;;;;;;6.05;2.55;;;;;;;;;;6193704;23;19915;-80
2022/09/12 18:07:07;;;;;;;5.32;2.88;;;;;;;;;;6166240;23;20013;-79
2022/09/12 18:09:32;;;;;;;;;;;;;;;;;;6171402;23;20004;-80